Terminal Aerodrome Forecast
Issued by NWS Jackson, MS

Home | Current Version | Previous Version | Text Only | Print | Product List | Glossary On
Versions: 1 2 3 4 5 6 7 8 9 10 11 12 13 14 15 16 17 18 19 20 21 22
908
FTUS44 KJAN 281720
TAFHBG
TAF
KHBG 281720Z 2818/2918 22006KT P6SM VCTS SCT030 BKN050CB
     FM290000 VRB04KT P6SM BKN050
     FM290800 14003KT 5SM BR BKN004
     FM291000 00000KT 2SM BR OVC001
     FM291500 17007KT P6SM BKN025=

USA.gov is the U.S. government's official web portal to all federal, state and local government web resources and services.